sensor_id;sensor_type;location;lat;lon;timestamp;P1;durP1;ratioP1;P2;durP2;ratioP2
7475;SDS011;3779;49.216;8.650;2023-07-29T00:00:18;2.45;;;1.30;;
7475;SDS011;3779;49.216;8.650;2023-07-29T00:03:05;1.85;;;1.10;;
7475;SDS011;3779;49.216;8.650;2023-07-29T00:05:51;1.85;;;1.30;;
7475;SDS011;3779;49.216;8.650;2023-07-29T00:08:37;1.27;;;1.17;;
7475;SDS011;3779;49.216;8.650;2023-07-29T00:11:22;3.20;;;1.30;;
7475;SDS011;3779;49.216;8.650;2023-07-29T00:14:08;2.08;;;1.40;;
7475;SDS011;3779;49.216;8.650;2023-07-29T00:16:54;2.53;;;1.30;;
7475;SDS011;3779;49.216;8.650;2023-07-29T00:19:40;2.88;;;1.48;;
7475;SDS011;3779;49.216;8.650;2023-07-29T00:22:26;3.47;;;1.40;;
7475;SDS011;3779;49.216;8.650;2023-07-29T00:25:11;3.10;;;2.80;;
7475;SDS011;3779;49.216;8.650;2023-07-29T00:27:58;1.90;;;1.45;;
7475;SDS011;3779;49.216;8.650;2023-07-29T00:30:44;1.92;;;1.48;;
7475;SDS011;3779;49.216;8.650;2023-07-29T00:33:30;1.83;;;1.55;;
7475;SDS011;3779;49.216;8.650;2023-07-29T00:36:15;5.13;;;1.65;;
7475;SDS011;3779;49.216;8.650;2023-07-29T00:39:01;2.90;;;1.33;;
7475;SDS011;3779;49.216;8.650;2023-07-29T00:41:48;5.28;;;1.75;;
7475;SDS011;3779;49.216;8.650;2023-07-29T00:44:34;2.78;;;1.35;;
7475;SDS011;3779;49.216;8.650;2023-07-29T00:47:20;1.92;;;1.40;;
7475;SDS011;3779;49.216;8.650;2023-07-29T00:50:09;1.40;;;1.25;;
7475;SDS011;3779;49.216;8.650;2023-07-29T00:52:56;5.88;;;1.33;;
7475;SDS011;3779;49.216;8.650;2023-07-29T00:55:42;1.45;;;1.10;;
7475;SDS011;3779;49.216;8.650;2023-07-29T00:58:29;4.57;;;2.00;;
7475;SDS011;3779;49.216;8.650;2023-07-29T01:01:15;2.97;;;1.23;;
7475;SDS011;3779;49.216;8.650;2023-07-29T02:20:22;2.08;;;1.55;;
7475;SDS011;3779;49.216;8.650;2023-07-29T02:26:05;1.77;;;1.10;;
7475;SDS011;3779;49.216;8.650;2023-07-29T02:29:13;4.85;;;1.30;;
7475;SDS011;3779;49.216;8.650;2023-07-29T02:34:48;2.10;;;1.20;;
7475;SDS011;3779;49.216;8.650;2023-07-29T02:37:37;2.45;;;1.30;;
7475;SDS011;3779;49.216;8.650;2023-07-29T02:40:44;2.05;;;1.50;;
7475;SDS011;3779;49.216;8.650;2023-07-29T02:43:30;2.00;;;1.40;;
7475;SDS011;3779;49.216;8.650;2023-07-29T02:46:21;2.60;;;1.50;;
7475;SDS011;3779;49.216;8.650;2023-07-29T02:49:07;2.55;;;1.52;;
7475;SDS011;3779;49.216;8.650;2023-07-29T02:51:53;1.40;;;1.30;;
7475;SDS011;3779;49.216;8.650;2023-07-29T02:54:42;2.78;;;1.50;;
7475;SDS011;3779;49.216;8.650;2023-07-29T02:57:53;4.35;;;1.60;;
7475;SDS011;3779;49.216;8.650;2023-07-29T03:00:42;3.78;;;1.40;;
7475;SDS011;3779;49.216;8.650;2023-07-29T03:03:49;4.50;;;1.30;;
7475;SDS011;3779;49.216;8.650;2023-07-29T03:09:31;2.30;;;1.30;;
7475;SDS011;3779;49.216;8.650;2023-07-29T03:15:16;1.77;;;1.30;;
7475;SDS011;3779;49.216;8.650;2023-07-29T03:18:03;3.95;;;1.30;;
7475;SDS011;3779;49.216;8.650;2023-07-29T03:20:52;3.67;;;1.40;;
7475;SDS011;3779;49.216;8.650;2023-07-29T03:23:43;1.40;;;1.25;;
7475;SDS011;3779;49.216;8.650;2023-07-29T08:30:53;2.85;;;2.08;;
7475;SDS011;3779;49.216;8.650;2023-07-29T08:33:40;3.97;;;2.78;;
7475;SDS011;3779;49.216;8.650;2023-07-29T08:36:27;3.13;;;2.25;;
7475;SDS011;3779;49.216;8.650;2023-07-29T08:39:31;2.97;;;2.20;;
7475;SDS011;3779;49.216;8.650;2023-07-29T08:42:27;2.25;;;1.98;;
7475;SDS011;3779;49.216;8.650;2023-07-29T08:45:16;2.22;;;1.60;;
7475;SDS011;3779;49.216;8.650;2023-07-29T08:48:41;3.20;;;2.03;;
7475;SDS011;3779;49.216;8.650;2023-07-29T08:51:29;2.30;;;2.10;;
7475;SDS011;3779;49.216;8.650;2023-07-29T08:54:17;2.63;;;2.10;;
7475;SDS011;3779;49.216;8.650;2023-07-29T08:57:14;2.05;;;1.95;;
7475;SDS011;3779;49.216;8.650;2023-07-29T09:00:01;2.15;;;1.95;;
7475;SDS011;3779;49.216;8.650;2023-07-29T09:02:51;5.18;;;1.95;;
7475;SDS011;3779;49.216;8.650;2023-07-29T09:05:39;2.45;;;2.22;;
7475;SDS011;3779;49.216;8.650;2023-07-29T09:08:33;3.58;;;2.15;;
7475;SDS011;3779;49.216;8.650;2023-07-29T09:11:35;2.03;;;1.80;;
7475;SDS011;3779;49.216;8.650;2023-07-29T09:14:23;1.90;;;1.80;;
7475;SDS011;3779;49.216;8.650;2023-07-29T10:31:35;1.90;;;1.80;;
7475;SDS011;3779;49.216;8.650;2023-07-29T10:34:47;1.55;;;1.45;;
7475;SDS011;3779;49.216;8.650;2023-07-29T10:37:37;1.80;;;1.70;;
7475;SDS011;3779;49.216;8.650;2023-07-29T10:40:44;2.80;;;1.80;;
7475;SDS011;3779;49.216;8.650;2023-07-29T10:58:38;2.72;;;1.70;;
7475;SDS011;3779;49.216;8.650;2023-07-29T11:01:30;2.67;;;2.00;;
7475;SDS011;3779;49.216;8.650;2023-07-29T11:04:27;2.38;;;1.60;;
7475;SDS011;3779;49.216;8.650;2023-07-29T11:10:15;2.03;;;1.67;;
7475;SDS011;3779;49.216;8.650;2023-07-29T15:09:35;1.73;;;1.60;;
7475;SDS011;3779;49.216;8.650;2023-07-29T15:12:21;2.38;;;1.70;;
7475;SDS011;3779;49.216;8.650;2023-07-29T15:15:08;1.63;;;1.52;;
7475;SDS011;3779;49.216;8.650;2023-07-29T15:17:54;1.65;;;1.55;;
7475;SDS011;3779;49.216;8.650;2023-07-29T15:20:43;3.25;;;2.50;;
7475;SDS011;3779;49.216;8.650;2023-07-29T15:23:29;4.57;;;4.07;;
7475;SDS011;3779;49.216;8.650;2023-07-29T15:26:16;4.40;;;4.03;;
7475;SDS011;3779;49.216;8.650;2023-07-29T15:29:03;3.20;;;3.00;;
7475;SDS011;3779;49.216;8.650;2023-07-29T15:31:58;4.43;;;4.13;;
7475;SDS011;3779;49.216;8.650;2023-07-29T15:34:36;5.03;;;1.92;;
7475;SDS011;3779;49.216;8.650;2023-07-29T15:46:25;2.20;;;1.83;;
7475;SDS011;3779;49.216;8.650;2023-07-29T16:04:02;2.40;;;1.90;;
7475;SDS011;3779;49.216;8.650;2023-07-29T16:06:48;1.77;;;1.67;;
7475;SDS011;3779;49.216;8.650;2023-07-29T20:10:18;3.53;;;3.00;;
7475;SDS011;3779;49.216;8.650;2023-07-29T20:34:02;3.35;;;2.50;;
7475;SDS011;3779;49.216;8.650;2023-07-29T20:36:48;4.15;;;2.65;;
7475;SDS011;3779;49.216;8.650;2023-07-29T20:39:33;2.70;;;2.50;;
7475;SDS011;3779;49.216;8.650;2023-07-29T20:47:58;2.72;;;2.53;;
7475;SDS011;3779;49.216;8.650;2023-07-29T20:53:43;3.38;;;2.33;;
7475;SDS011;3779;49.216;8.650;2023-07-29T23:23:07;3.78;;;2.90;;
7475;SDS011;3779;49.216;8.650;2023-07-29T23:35:08;4.10;;;3.45;;
7475;SDS011;3779;49.216;8.650;2023-07-29T23:50:30;3.10;;;2.90;;
7475;SDS011;3779;49.216;8.650;2023-07-29T23:56:18;3.75;;;2.80;;
7475;SDS011;3779;49.216;8.650;2023-07-29T23:59:05;3.58;;;2.50;;
